Home > Products > Valid Products > MTR

000
SAUS45 KPIH 061452
MTRSNT
METAR KSNT 061451Z AUTO 00000KT 13/06 A3029 RMK AO1 SLP170 T01280061
51003





000
SAUS45 KPIH 061452
MTRSNT
METAR KSNT 061451Z AUTO 00000KT 13/06 A3029 RMK AO1 SLP170 T01280061
51003





000
SAUS45 KPIH 061352
MTRSNT
METAR KSNT 061351Z AUTO 00000KT 10/06 A3029 RMK AO1 SLP175 T01000056





000
SAUS45 KPIH 061352
MTRSNT
METAR KSNT 061351Z AUTO 00000KT 10/06 A3029 RMK AO1 SLP175 T01000056





000
SAUS45 KPIH 061252
MTRSNT
METAR KSNT 061251Z AUTO VRB03KT 08/04 A3029 RMK AO1 SLP175 T00780044





000
SAUS45 KPIH 061252
MTRSNT
METAR KSNT 061251Z AUTO VRB03KT 08/04 A3029 RMK AO1 SLP175 T00780044





000
SAUS45 KPIH 061152
MTRSNT
METAR KSNT 061151Z AUTO 15003KT 07/04 A3028 RMK AO1 SLP177 T00670039
10117 20056 53006





000
SAUS45 KPIH 061152
MTRSNT
METAR KSNT 061151Z AUTO 15003KT 07/04 A3028 RMK AO1 SLP177 T00670039
10117 20056 53006





000
SAUS45 KPIH 061052
MTRSNT
METAR KSNT 061051Z AUTO 00000KT 07/04 A3026 RMK AO1 SLP169 T00670039





000
SAUS45 KPIH 061052
MTRSNT
METAR KSNT 061051Z AUTO 00000KT 07/04 A3026 RMK AO1 SLP169 T00670039





000
SAUS45 KPIH 060953
MTRSNT
METAR KSNT 060951Z AUTO 00000KT 07/04 A3026 RMK AO1 SLP166 T00670044





000
SAUS45 KPIH 060953
MTRSNT
METAR KSNT 060951Z AUTO 00000KT 07/04 A3026 RMK AO1 SLP166 T00670044





000
SAUS45 KPIH 060852
MTRSNT
METAR KSNT 060851Z AUTO 17003KT 10/06 A3026 RMK AO1 SLP154 T01000056
51008





000
SAUS45 KPIH 060752
MTRSNT
METAR KSNT 060751Z AUTO 14003KT 10/06 A3025 RMK AO1 SLP153 T01000061





000
SAUS45 KPIH 060652
MTRSNT
METAR KSNT 060651Z AUTO 00000KT 09/06 A3024 RMK AO1 SLP148 T00940056
402280089





000
SAUS45 KPIH 060552
MTRSNT
METAR KSNT 060551Z AUTO 16003KT 09/05 A3023 RMK AO1 SLP144 T00940050
10194 20089 53012





000
SAUS45 KPIH 060452
MTRSNT
METAR KSNT 060451Z AUTO 15004KT 12/07 A3022 RMK AO1 SLP142 T01170067





000
SAUS45 KPIH 060352
MTRSNT
METAR KSNT 060351Z AUTO 18005KT 12/07 A3020 RMK AO1 SLP140 T01220067





000
SAUS45 KPIH 060252
MTRSNT
METAR KSNT 060251Z AUTO 17003KT 17/07 A3019 RMK AO1 SLP132 T01670067
55000





000
SAUS45 KPIH 060252
MTRSNT
METAR KSNT 060251Z AUTO 17003KT 17/07 A3019 RMK AO1 SLP132 T01670067
55000





000
SAUS45 KPIH 060152
MTRSNT
METAR KSNT 060151Z AUTO 12006KT 18/06 A3018 RMK AO1 SLP133 T01780061





000
SAUS45 KPIH 060152
MTRSNT
METAR KSNT 060151Z AUTO 12006KT 18/06 A3018 RMK AO1 SLP133 T01780061





000
SAUS45 KPIH 060052
MTRSNT
METAR KSNT 060051Z AUTO 00000KT 19/04 A3018 RMK AO1 SLP133 T01940044





000
SAUS45 KPIH 060052
MTRSNT
METAR KSNT 060051Z AUTO 00000KT 19/04 A3018 RMK AO1 SLP133 T01940044





000
SAUS45 KPIH 052352
MTRSNT
METAR KSNT 052351Z AUTO 16007KT 19/05 A3019 RMK AO1 SLP134 T01890050
10228 20189 51010





000
SAUS45 KPIH 052352
MTRSNT
METAR KSNT 052351Z AUTO 16007KT 19/05 A3019 RMK AO1 SLP134 T01890050
10228 20189 51010





000
SAUS45 KPIH 052252
MTRSNT
METAR KSNT 052251Z AUTO 21005KT 20/04 A3018 RMK AO1 SLP128 T02000044





000
SAUS45 KPIH 052152
MTRSNT
METAR KSNT 052151Z AUTO VRB03KT 21/04 A3016 RMK AO1 SLP121 T02110039





000
SAUS45 KPIH 052052
MTRSNT
METAR KSNT 052051Z AUTO 22/04 A3015 RMK AO1 SLP114 T02170039 52008





000
SAUS45 KPIH 051952
MTRSNT
METAR KSNT 051951Z AUTO VRB03KT 22/06 A3014 RMK AO1 SLP108 T02220061





000
SAUS45 KPIH 051852
MTRSNT
METAR KSNT 051851Z AUTO 00000KT 22/04 A3013 RMK AO1 SLP099 T02220044





000
SAUS45 KPIH 051752
MTRSNT
METAR KSNT 051751Z AUTO 19003KT 22/04 A3012 RMK AO1 SLP094 T02220039
10222 20094 50003





000
SAUS45 KPIH 051752
MTRSNT
METAR KSNT 051751Z AUTO 19003KT 22/04 A3012 RMK AO1 SLP094 T02220039
10222 20094 50003





000
SAUS45 KPIH 051652
MTRSNT
METAR KSNT 051651Z AUTO 10004KT 19/06 A3012 RMK AO1 SLP100 T01890061





000
SAUS45 KPIH 051652
MTRSNT
METAR KSNT 051651Z AUTO 10004KT 19/06 A3012 RMK AO1 SLP100 T01890061





000
SAUS45 KPIH 051552
MTRSNT
METAR KSNT 051551Z AUTO 00000KT 16/04 A3012 RMK AO1 SLP098 T01610039





000
SAUS45 KPIH 051452
MTRSNT
METAR KSNT 051451Z AUTO 00000KT 14/05 A3011 RMK AO1 SLP087 T01390050
51005





000
SAUS45 KPIH 051352
MTRSNT
METAR KSNT 051351Z AUTO 00000KT 12/04 A3011 RMK AO1 SLP086 T01170039





000
SAUS45 KPIH 051252
MTRSNT
METAR KSNT 051251Z AUTO 00000KT 10/03 A3011 RMK AO1 SLP088 T01000033





000
SAUS45 KPIH 051152
MTRSNT
METAR KSNT 051151Z AUTO 12004KT 11/03 A3009 RMK AO1 SLP080 T01060033
10156 20094 51004





000
SAUS45 KPIH 051052
MTRSNT
METAR KSNT 051051Z AUTO 00000KT 11/03 A3009 RMK AO1 SLP081 T01060028





000
SAUS45 KPIH 050952
MTRSNT
METAR KSNT 050951Z AUTO 18003KT 11/02 A3008 RMK AO1 SLP073 T01110017





000
SAUS45 KPIH 050852
MTRSNT
METAR KSNT 050851Z AUTO 14003KT 12/02 A3008 RMK AO1 SLP068 T01170017
55000





000
SAUS45 KPIH 050752
MTRSNT
METAR KSNT 050751Z AUTO 17003KT 12/01 A3008 RMK AO1 SLP067 T01220011





000
SAUS45 KPIH 050752
MTRSNT
METAR KSNT 050751Z AUTO 17003KT 12/01 A3008 RMK AO1 SLP067 T01220011





000
SAUS45 KPIH 050652
MTRSNT
METAR KSNT 050651Z AUTO 00000KT 14/01 A3008 RMK AO1 SLP067 T01390011
403110050





000
SAUS45 KPIH 050652
MTRSNT
METAR KSNT 050651Z AUTO 00000KT 14/01 A3008 RMK AO1 SLP067 T01390011
403110050





000
SAUS45 KPIH 050552
MTRSNT
METAR KSNT 050551Z AUTO 20003KT 16/01 A3008 RMK AO1 SLP066 T01560011
10300 20150 50003





000
SAUS45 KPIH 050552
MTRSNT
METAR KSNT 050551Z AUTO 20003KT 16/01 A3008 RMK AO1 SLP066 T01560011
10300 20150 50003





000
SAUS45 KPIH 050452
MTRSNT
METAR KSNT 050451Z AUTO 19004KT 16/02 A3008 RMK AO1 SLP075 T01610017





000
SAUS45 KPIH 050452
MTRSNT
METAR KSNT 050451Z AUTO 19004KT 16/02 A3008 RMK AO1 SLP075 T01610017





000
SAUS45 KPIH 050352
MTRSNT
METAR KSNT 050351Z AUTO 00000KT 19/02 A3007 RMK AO1 SLP072 T01940022





000
SAUS45 KPIH 050252
MTRSNT
METAR KSNT 050251Z AUTO 35003KT 24/00 A3007 RMK AO1 SLP073 T02440000
53007





000
SAUS45 KPIH 050152
MTRSNT
METAR KSNT 050151Z AUTO VRB05KT 27/02 A3006 RMK AO1 SLP070 T02720022





000
SAUS45 KPIH 050052
MTRSNT
METAR KSNT 050051Z AUTO 27007KT 28/03 A3004 RMK AO1 SLP075 T02780028





000
SAUS45 KPIH 050052
MTRSNT
METAR KSNT 050051Z AUTO 27007KT 28/03 A3004 RMK AO1 SLP075 T02780028





000
SAUS45 KPIH 042352
MTRSNT
METAR KSNT 042351Z AUTO 29005KT 28/02 A3005 RMK AO1 SLP076 T02780022
10311 20278 56009





000
SAUS45 KPIH 042352
MTRSNT
METAR KSNT 042351Z AUTO 29005KT 28/02 A3005 RMK AO1 SLP076 T02780022
10311 20278 56009





000
SAUS45 KPIH 042252
MTRSNT
METAR KSNT 042251Z AUTO 27008KT 28/01 A3005 RMK AO1 SLP074 T02830011





000
SAUS45 KPIH 042152
MTRSNT
METAR KSNT 042151Z AUTO VRB05KT 29/M02 A3007 RMK AO1 SLP075
T02941017





000
SAUS45 KPIH 042052
MTRSNT
METAR KSNT 042051Z AUTO VRB04KT 30/M03 A3008 RMK AO1 SLP071
T03001028 57009





000
SAUS45 KPIH 041952
MTRSNT
METAR KSNT 041951Z AUTO 19009G17KT 160V230 30/M04 A3009 RMK AO1
SLP074 T03001039





000
SAUS45 KPIH 041852
MTRSNT
METAR KSNT 041851Z AUTO 29/M04 A3010 RMK AO1 SLP079 T02941039





000
SAUS45 KPIH 041752
MTRSNT
METAR KSNT 041751Z AUTO 35004KT 28/02 A3011 RMK AO1 SLP087 T02780017
10278 20050 58015





000
SAUS45 KPIH 041652
MTRSNT
METAR KSNT 041651Z AUTO 30003KT 23/04 A3013 RMK AO1 SLP094 T02330039





000
SAUS45 KPIH 041552
MTRSNT
METAR KSNT 041551Z AUTO 00000KT 19/03 A3015 RMK AO1 SLP105 T01940033





000
SAUS45 KPIH 041552
MTRSNT
METAR KSNT 041551Z AUTO 00000KT 19/03 A3015 RMK AO1 SLP105 T01940033





000
SAUS45 KPIH 041452
MTRSNT
METAR KSNT 041451Z AUTO 04003KT 14/03 A3017 RMK AO1 SLP104 T01440028
50001





000
SAUS45 KPIH 041352
MTRSNT
METAR KSNT 041351Z AUTO 10003KT 11/01 A3017 RMK AO1 SLP105 T01060011





000
SAUS45 KPIH 041252
MTRSNT
METAR KSNT 041251Z AUTO 00000KT 05/00 A3017 RMK AO1 SLP115 T00500000





000
SAUS45 KPIH 041252
MTRSNT
METAR KSNT 041251Z AUTO 00000KT 05/00 A3017 RMK AO1 SLP115 T00500000





000
SAUS45 KPIH 041152
MTRSNT
METAR KSNT 041151Z AUTO 00000KT 05/M01 A3016 RMK AO1 SLP113
T00501006 10128 20050 53006





000
SAUS45 KPIH 041052
MTRSNT
METAR KSNT 041051Z AUTO 00000KT 07/M01 A3015 RMK AO1 SLP107
T00671006





000
SAUS45 KPIH 040952
MTRSNT
METAR KSNT 040951Z AUTO 17005KT 08/00 A3015 RMK AO1 SLP099 T00830000





000
SAUS45 KPIH 040852
MTRSNT
METAR KSNT 040851Z AUTO 00000KT 11/00 A3014 RMK AO1 SLP092 T01060000
58001





000
SAUS45 KPIH 040852
MTRSNT
METAR KSNT 040851Z AUTO 00000KT 11/00 A3014 RMK AO1 SLP092 T01060000
58001





000
SAUS45 KPIH 040752
MTRSNT
METAR KSNT 040751Z AUTO 00000KT 11/00 A3015 RMK AO1 SLP095 T01060000





000
SAUS45 KPIH 040652
MTRSNT
METAR KSNT 040651Z AUTO 15004KT 12/00 A3015 RMK AO1 SLP095 T01170000
403110061





000
SAUS45 KPIH 040552
MTRSNT
METAR KSNT 040551Z AUTO 17005KT 11/00 A3014 RMK AO1 SLP098 T01110000
10306 20111 51014





000
SAUS45 KPIH 040452
MTRSNT
METAR KSNT 040451Z AUTO 18005KT 16/M01 A3014 RMK AO1 SLP096
T01561006





000
SAUS45 KPIH 040352
MTRSNT
METAR KSNT 040351Z AUTO 00000KT 18/M01 A3012 RMK AO1 SLP095
T01831006





000
SAUS45 KPIH 040252
MTRSNT
METAR KSNT 040251Z AUTO 27003KT 26/00 A3009 RMK AO1 SLP078 T02560000
55001





000
SAUS45 KPIH 040252
MTRSNT
METAR KSNT 040251Z AUTO 27003KT 26/00 A3009 RMK AO1 SLP078 T02560000
55001





000
SAUS45 KPIH 040152
MTRSNT
METAR KSNT 040151Z AUTO 29005KT 29/M03 A3008 RMK AO1 SLP076
T02891028





000
SAUS45 KPIH 040052
MTRSNT
METAR KSNT 040051Z AUTO 30006KT 30/M02 A3009 RMK AO1 SLP081
T03001022





000
SAUS45 KPIH 032352
MTRSNT
METAR KSNT 032351Z AUTO 30009KT 31/M01 A3010 RMK AO1 SLP087
T03061011 10311 20278 57014





000
SAUS45 KPIH 032252
MTRSNT
METAR KSNT 032251Z AUTO 31008G17KT 30/01 A3011 RMK AO1 SLP093
T03000006





000
SAUS45 KPIH 032152
MTRSNT
METAR KSNT 032151Z AUTO 30009G20KT 260V320 31/01 A3013 RMK AO1
SLP091 T03060011





000
SAUS45 KPIH 032152
MTRSNT
METAR KSNT 032151Z AUTO 30009G20KT 260V320 31/01 A3013 RMK AO1
SLP091 T03060011





000
SAUS45 KPIH 032052
MTRSNT
METAR KSNT 032051Z AUTO 32010G19KT 31/03 A3015 RMK AO1 SLP099
T03060033 58009





000
SAUS45 KPIH 031952
MTRSNT
METAR KSNT 031951Z AUTO 31012G20KT 30/05 A3016 RMK AO1 SLP101
T03000050





000
SAUS45 KPIH 031852
MTRSNT
METAR KSNT 031851Z AUTO 31009G20KT 270V340 29/04 A3018 RMK AO1
SLP103 T02890044





000
SAUS45 KPIH 031752
MTRSNT
METAR KSNT 031751Z AUTO VRB05KT 28/05 A3018 RMK AO1 SLP106 T02780050
10278 20061 58015





000
SAUS45 KPIH 031652
MTRSNT
METAR KSNT 031651Z AUTO 00000KT 23/07 A3020 RMK AO1 SLP115 T02280067





000
SAUS45 KPIH 031552
MTRSNT
METAR KSNT 031551Z AUTO 34003KT 18/06 A3022 RMK AO1 SLP134 T01780056





000
SAUS45 KPIH 031552
MTRSNT
METAR KSNT 031551Z AUTO 34003KT 18/06 A3022 RMK AO1 SLP134 T01780056





    US Dept of Commerce
    National Oceanic and Atmospheric Administration
    National Weather Service
    1325 East West Highway
    Silver Spring, MD 20910
    Page Author: NWS Internet Services Team
Disclaimer
Information Quality
Credits
Glossary
Privacy Policy
Freedom of Information Act (FOIA)
About Us
Career Opportunities